Time;durP1;ratioP1;P1;durP2;ratioP2;P2;SDS_P1;SDS_P2;PMS_P1;PMS_P2;Temp;Humidity;BMP_temperature;BMP_pressure;BME280_temperature;BME280_humidity;BME280_pressure;Samples;Min_cycle;Max_cycle;Signal;HPM_P1;HPM_P2
2023/04/28 00:00:09;;;;;;;7.18;5.80;;;;;;;11.32;38.82;100808.81;680021;28;1259;-79
2023/04/28 00:00:29;;;;;;;6.40;5.60;;;;;;;11.32;38.85;100814.06;682740;28;997;-79
2023/04/28 00:00:50;;;;;;;6.78;5.80;;;;;;;11.37;39.03;100812.44;685465;28;1102;-78
2023/04/28 00:01:11;;;;;;;7.47;5.90;;;;;;;11.31;38.88;100807.06;685741;28;1042;-79
2023/04/28 00:01:31;;;;;;;7.95;6.30;;;;;;;11.29;38.88;100811.38;684903;28;1169;-78
2023/04/28 00:01:52;;;;;;;7.20;6.37;;;;;;;11.23;39.02;100804.22;682704;28;1387;-79
2023/04/28 00:02:17;;;;;;;8.93;6.53;;;;;;;11.27;39.39;100813.94;680347;29;1040;-79
2023/04/28 00:02:38;;;;;;;10.00;6.55;;;;;;;11.11;39.30;100799.56;679924;28;1324;-79
2023/04/28 00:02:59;;;;;;;9.90;6.53;;;;;;;11.10;39.33;100809.16;685534;28;1350;-78
2023/04/28 00:03:20;;;;;;;7.90;6.55;;;;;;;11.05;39.63;100802.06;688031;28;1189;-79
2023/04/28 00:03:41;;;;;;;7.60;6.40;;;;;;;11.13;39.41;100804.84;680049;28;1249;-79
2023/04/28 00:04:02;;;;;;;7.80;6.20;;;;;;;11.22;39.24;100808.59;680231;29;1272;-79
2023/04/28 00:04:22;;;;;;;7.90;6.05;;;;;;;11.16;39.20;100797.97;682733;29;1189;-78
2023/04/28 00:04:43;;;;;;;8.00;6.00;;;;;;;11.15;39.21;100795.31;682696;29;1233;-78
2023/04/28 00:05:05;;;;;;;8.97;5.90;;;;;;;11.13;39.51;100810.97;677635;29;1144;-79
2023/04/28 00:05:25;;;;;;;9.23;5.82;;;;;;;11.04;39.93;100801.16;680053;29;1184;-79
2023/04/28 00:05:48;;;;;;;9.98;6.00;;;;;;;11.01;39.43;100802.78;677622;29;1056;-78
2023/04/28 00:06:10;;;;;;;11.43;6.10;;;;;;;11.09;39.49;100816.94;680170;28;1219;-78
2023/04/28 00:06:30;;;;;;;10.20;5.90;;;;;;;11.01;39.56;100806.31;682594;28;1497;-78
2023/04/28 00:06:51;;;;;;;7.65;5.90;;;;;;;10.99;39.73;100799.28;680163;29;1016;-78
2023/04/28 00:07:12;;;;;;;8.03;6.07;;;;;;;10.99;39.71;100801.88;677599;29;1145;-78
2023/04/28 00:07:32;;;;;;;9.15;6.50;;;;;;;10.99;39.72;100801.88;677288;29;1908;-78
2023/04/28 00:07:53;;;;;;;9.50;6.60;;;;;;;11.00;39.75;100804.50;677595;29;1066;-78
2023/04/28 00:08:14;;;;;;;8.25;6.57;;;;;;;10.95;39.73;100791.34;677677;29;1030;-78
2023/04/28 00:08:34;;;;;;;7.82;6.30;;;;;;;10.92;39.86;100792.97;677128;29;1216;-78
2023/04/28 00:08:55;;;;;;;7.83;6.10;;;;;;;10.99;39.95;100813.19;680169;29;1270;-78
2023/04/28 00:09:15;;;;;;;7.03;5.85;;;;;;;10.95;40.00;100798.31;682832;28;1124;-78
2023/04/28 00:09:36;;;;;;;7.07;6.18;;;;;;;10.94;39.97;100794.78;682701;28;1036;-78
2023/04/28 00:09:57;;;;;;;7.00;6.30;;;;;;;10.91;39.67;100794.72;685573;28;947;-78
2023/04/28 00:10:17;;;;;;;7.70;6.50;;;;;;;10.91;40.03;100794.72;682795;28;1080;-78
2023/04/28 00:10:38;;;;;;;7.70;6.45;;;;;;;11.09;39.76;100798.66;685322;28;1215;-78
2023/04/28 00:10:59;;;;;;;9.17;6.90;;;;;;;11.07;40.04;100797.75;685477;28;887;-79
2023/04/28 00:11:20;;;;;;;8.52;6.85;;;;;;;11.07;39.61;100808.19;682775;28;1084;-78
2023/04/28 00:11:43;;;;;;;9.90;7.00;;;;;;;11.04;39.65;100808.09;682649;28;1223;-79
2023/04/28 00:12:04;;;;;;;9.18;6.63;;;;;;;10.96;39.83;100794.84;682812;28;1148;-78
2023/04/28 00:12:25;;;;;;;8.88;6.60;;;;;;;11.01;39.99;100801.09;682707;29;1307;-79
2023/04/28 00:12:45;;;;;;;8.10;6.30;;;;;;;10.92;40.16;100793.88;680124;29;1168;-78
2023/04/28 00:13:06;;;;;;;7.63;6.22;;;;;;;10.88;40.15;100786.78;682893;28;1323;-79
2023/04/28 00:13:26;;;;;;;7.80;6.30;;;;;;;10.95;40.09;100796.56;680072;29;993;-79
2023/04/28 00:13:47;;;;;;;8.60;6.23;;;;;;;10.91;40.17;100786.88;680250;29;1106;-78
2023/04/28 00:14:08;;;;;;;9.65;6.20;;;;;;;10.90;40.34;100790.34;680278;29;1102;-78
2023/04/28 00:14:28;;;;;;;9.13;6.30;;;;;;;10.91;39.98;100789.50;679989;28;1219;-78
2023/04/28 00:14:49;;;;;;;7.70;6.50;;;;;;;10.90;40.10;100785.13;678278;29;1226;-79
2023/04/28 00:15:10;;;;;;;7.38;6.68;;;;;;;10.85;40.29;100784.09;680497;28;1161;-79
2023/04/28 00:15:31;;;;;;;6.78;6.18;;;;;;;10.90;40.38;100785.13;682691;28;1321;-78
2023/04/28 00:15:52;;;;;;;6.85;6.15;;;;;;;10.90;40.41;100787.75;680225;29;1189;-78
2023/04/28 00:16:12;;;;;;;6.95;6.25;;;;;;;10.88;40.21;100784.19;680202;29;1260;-78
2023/04/28 00:16:33;;;;;;;7.90;6.57;;;;;;;10.86;40.54;100779.78;680065;29;1020;-78
2023/04/28 00:16:55;;;;;;;9.23;6.70;;;;;;;10.83;40.27;100778.84;682801;29;827;-78
2023/04/28 00:17:16;;;;;;;10.80;6.68;;;;;;;10.87;40.32;100779.81;688092;28;1184;-78
2023/04/28 00:17:36;;;;;;;9.67;6.67;;;;;;;10.83;40.32;100780.56;687855;28;1202;-78
2023/04/28 00:17:57;;;;;;;9.50;6.55;;;;;;;10.93;40.53;100797.34;685636;28;823;-78
2023/04/28 00:18:20;;;;;;;8.70;6.50;;;;;;;10.82;40.40;100781.41;682851;28;1081;-79
2023/04/28 00:18:41;;;;;;;8.70;6.63;;;;;;;10.77;40.68;100772.56;682642;28;1115;-79
2023/04/28 00:19:01;;;;;;;8.70;6.60;;;;;;;10.81;40.45;100779.63;688155;28;1529;-78
2023/04/28 00:19:22;;;;;;;9.85;6.72;;;;;;;10.79;40.48;100783.94;688083;28;1069;-78
2023/04/28 00:19:43;;;;;;;9.77;6.70;;;;;;;10.78;40.21;100782.16;685406;28;1263;-79
2023/04/28 00:20:05;;;;;;;9.90;6.85;;;;;;;10.83;40.59;100788.41;680302;29;1200;-78
2023/04/28 00:20:26;;;;;;;9.35;6.60;;;;;;;10.83;40.60;100784.06;682691;29;1998;-78
2023/04/28 00:20:46;;;;;;;8.50;6.00;;;;;;;10.81;40.50;100785.75;688133;28;919;-79
2023/04/28 00:21:07;;;;;;;8.85;5.95;;;;;;;10.80;40.57;100773.53;688282;28;1085;-78
2023/04/28 00:21:28;;;;;;;7.88;5.97;;;;;;;10.85;40.31;100785.81;685339;28;1013;-78
2023/04/28 00:21:48;;;;;;;7.75;6.22;;;;;;;10.90;40.25;100790.34;680174;29;1228;-78
2023/04/28 00:22:09;;;;;;;8.37;6.47;;;;;;;10.92;40.07;100790.38;680233;29;1227;-78
2023/04/28 00:22:30;;;;;;;9.60;6.50;;;;;;;10.85;40.46;100777.97;682646;28;1103;-78
2023/04/28 00:22:50;;;;;;;9.65;6.45;;;;;;;10.81;40.53;100769.19;682743;28;1276;-79
2023/04/28 00:23:11;;;;;;;8.05;6.00;;;;;;;10.82;40.45;100766.63;682877;28;984;-78
2023/04/28 00:23:31;;;;;;;7.33;6.00;;;;;;;10.87;40.47;100774.56;685153;28;1135;-78
2023/04/28 00:23:52;;;;;;;7.75;6.32;;;;;;;10.87;40.43;100769.34;682826;28;1165;-78
2023/04/28 00:24:12;;;;;;;8.30;6.50;;;;;;;10.86;40.50;100766.72;685489;28;1249;-78
2023/04/28 00:24:35;;;;;;;7.82;6.70;;;;;;;10.86;40.48;100762.38;682691;28;1298;-78
2023/04/28 00:24:55;;;;;;;7.60;6.63;;;;;;;10.87;40.58;100763.28;680610;28;940;-79
2023/04/28 00:25:16;;;;;;;7.57;6.60;;;;;;;10.91;40.48;100771.22;682934;28;1072;-78
2023/04/28 00:25:37;;;;;;;9.00;6.70;;;;;;;10.93;40.64;100774.75;682673;28;1009;-79
2023/04/28 00:25:57;;;;;;;9.20;6.60;;;;;;;10.97;40.50;100771.41;680106;29;1252;-79
2023/04/28 00:26:18;;;;;;;9.48;6.50;;;;;;;10.95;40.80;100775.66;680186;29;1191;-79
2023/04/28 00:26:39;;;;;;;7.93;6.30;;;;;;;10.90;40.61;100769.47;680062;29;1412;-78
2023/04/28 00:27:00;;;;;;;8.00;6.30;;;;;;;10.97;40.79;100763.56;685405;28;1280;-78
2023/04/28 00:27:20;;;;;;;7.68;6.60;;;;;;;11.09;40.43;100775.16;680056;29;1458;-78
2023/04/28 00:27:41;;;;;;;8.27;7.00;;;;;;;11.21;40.33;100777.19;680079;29;1910;-78
2023/04/28 00:28:02;;;;;;;9.25;7.03;;;;;;;11.19;40.46;100790.22;682831;28;1339;-79
2023/04/28 00:28:22;;;;;;;9.75;6.80;;;;;;;11.09;40.40;100770.81;680103;29;1103;-78
2023/04/28 00:28:43;;;;;;;9.60;6.37;;;;;;;11.06;40.28;100775.09;680170;29;998;-78
2023/04/28 00:29:03;;;;;;;8.95;6.70;;;;;;;10.97;40.49;100763.56;680246;28;1235;-78
2023/04/28 00:29:24;;;;;;;9.35;7.00;;;;;;;11.00;40.92;100780.13;682709;28;1161;-78
2023/04/28 00:29:45;;;;;;;8.93;7.10;;;;;;;10.92;40.59;100765.16;682790;29;1412;-78
2023/04/28 00:30:06;;;;;;;8.98;6.80;;;;;;;10.91;40.73;100762.50;680105;29;1449;-78
2023/04/28 00:30:29;;;;;;;8.65;6.90;;;;;;;10.88;41.05;100758.06;682531;28;1568;-78
2023/04/28 00:30:50;;;;;;;7.85;6.40;;;;;;;10.94;41.21;100773.03;680156;29;1254;-78
2023/04/28 00:31:12;;;;;;;7.47;6.30;;;;;;;10.99;41.00;100776.63;680284;29;1273;-78
2023/04/28 00:31:34;;;;;;;7.00;6.30;;;;;;;10.90;41.05;100759.00;677305;29;1106;-79
2023/04/28 00:31:55;;;;;;;7.35;6.55;;;;;;;10.86;41.00;100758.91;680224;29;1217;-79
2023/04/28 00:32:15;;;;;;;7.30;6.50;;;;;;;10.97;41.05;100776.63;682842;28;1128;-79
2023/04/28 00:32:36;;;;;;;7.75;6.57;;;;;;;10.95;41.07;100767.84;685368;28;1090;-79
2023/04/28 00:32:56;;;;;;;9.03;6.83;;;;;;;10.93;41.07;100768.63;682955;29;1182;-78
2023/04/28 00:33:17;;;;;;;9.83;7.30;;;;;;;10.94;40.86;100771.28;682682;29;1060;-78
2023/04/28 00:33:39;;;;;;;8.70;7.00;;;;;;;10.99;40.74;100774.03;680046;29;1187;-78
2023/04/28 00:34:00;;;;;;;8.05;6.30;;;;;;;10.97;41.02;100771.41;680363;29;876;-78
2023/04/28 00:34:20;;;;;;;8.45;6.40;;;;;;;10.87;40.82;100748.47;682801;29;1122;-77
2023/04/28 00:34:41;;;;;;;8.47;6.57;;;;;;;10.92;40.90;100762.53;679997;29;1075;-78
2023/04/28 00:35:02;;;;;;;9.93;7.10;;;;;;;10.91;40.83;100752.94;685417;28;1445;-78
2023/04/28 00:35:23;;;;;;;9.70;7.05;;;;;;;10.93;41.06;100756.47;682840;29;800;-78
2023/04/28 00:35:45;;;;;;;9.05;6.93;;;;;;;10.93;41.14;100758.19;682710;28;1123;-78
2023/04/28 00:36:06;;;;;;;9.02;7.00;;;;;;;10.95;41.13;100764.34;682737;28;1444;-78
2023/04/28 00:36:30;;;;;;;9.43;6.93;;;;;;;10.93;41.11;100752.97;682625;28;1156;-79
2023/04/28 00:36:52;;;;;;;10.23;6.90;;;;;;;10.89;41.44;100746.81;682732;28;856;-79
2023/04/28 00:37:12;;;;;;;8.63;6.85;;;;;;;10.93;41.28;100751.25;680325;29;1197;-79
2023/04/28 00:37:36;;;;;;;8.03;6.60;;;;;;;10.97;41.10;100765.28;682554;28;1158;-79
2023/04/28 00:37:57;;;;;;;7.30;6.40;;;;;;;10.88;41.36;100745.00;677536;28;1227;-79
2023/04/28 00:38:17;;;;;;;8.00;6.10;;;;;;;10.90;41.36;100748.56;680020;29;1328;-78
2023/04/28 00:38:38;;;;;;;8.40;6.15;;;;;;;10.91;41.05;100750.34;680089;29;1114;-79
2023/04/28 00:38:59;;;;;;;8.48;6.30;;;;;;;10.92;41.24;100754.72;682801;29;1104;-79
2023/04/28 00:39:21;;;;;;;8.25;6.43;;;;;;;10.89;41.02;100744.19;685422;28;977;-79
2023/04/28 00:39:45;;;;;;;7.75;6.60;;;;;;;10.87;41.19;100745.88;677414;29;1113;-78
2023/04/28 00:40:06;;;;;;;8.95;6.82;;;;;;;10.94;40.82;100750.41;682798;28;1401;-79
2023/04/28 00:40:34;;;;;;;10.55;7.05;;;;;;;11.03;40.86;100769.75;682627;28;1224;-78
2023/04/28 00:40:55;;;;;;;11.05;6.85;;;;;;;10.95;40.79;100751.31;685541;28;858;-79
2023/04/28 00:41:16;;;;;;;9.38;6.47;;;;;;;10.94;40.84;100744.31;680157;29;1199;-78
2023/04/28 00:41:36;;;;;;;9.63;6.60;;;;;;;11.03;40.74;100764.53;680060;29;1086;-78
2023/04/28 00:41:57;;;;;;;9.97;6.70;;;;;;;10.91;40.95;100744.22;677716;29;917;-78
2023/04/28 00:42:18;;;;;;;10.52;6.90;;;;;;;10.92;41.17;100748.59;682698;28;1254;-78
2023/04/28 00:42:39;;;;;;;8.60;6.53;;;;;;;11.01;40.73;100761.00;680080;28;1109;-78
2023/04/28 00:42:59;;;;;;;8.10;6.30;;;;;;;11.00;41.04;100760.13;682938;28;1271;-78
2023/04/28 00:43:20;;;;;;;9.30;6.20;;;;;;;10.94;41.08;100747.78;679983;29;1092;-78
2023/04/28 00:43:46;;;;;;;9.15;6.38;;;;;;;10.96;40.90;100751.31;682786;28;1075;-78
2023/04/28 00:44:06;;;;;;;10.73;6.68;;;;;;;10.92;41.06;100740.75;680141;29;1012;-78
2023/04/28 00:44:27;;;;;;;10.20;6.90;;;;;;;10.91;40.81;100745.13;680085;28;1133;-79
2023/04/28 00:44:47;;;;;;;9.57;7.20;;;;;;;11.02;41.04;100757.56;680168;29;1258;-79
2023/04/28 00:45:08;;;;;;;7.28;6.50;;;;;;;11.00;41.08;100746.19;682880;29;966;-79
2023/04/28 00:45:30;;;;;;;9.70;6.43;;;;;;;11.03;41.28;100759.31;682682;29;1214;-79
2023/04/28 00:45:51;;;;;;;10.25;6.30;;;;;;;11.01;41.32;100754.06;682824;28;1243;-78
2023/04/28 00:46:19;;;;;;;10.73;6.85;;;;;;;10.96;41.41;100743.47;682735;28;1019;-78
2023/04/28 00:46:40;;;;;;;7.90;6.40;;;;;;;10.96;41.45;100747.84;682655;28;1104;-78
2023/04/28 00:47:01;;;;;;;8.10;6.13;;;;;;;11.14;41.02;100752.66;680163;29;804;-78
2023/04/28 00:47:22;;;;;;;9.55;6.30;;;;;;;11.10;41.19;100756.03;682723;28;1190;-78
2023/04/28 00:47:45;;;;;;;10.00;6.35;;;;;;;11.07;41.54;100755.97;685406;28;1145;-78
2023/04/28 00:48:07;;;;;;;9.75;6.60;;;;;;;10.94;41.37;100739.09;685475;28;1221;-78
2023/04/28 00:48:28;;;;;;;8.88;6.75;;;;;;;10.98;41.38;100743.53;679883;28;1190;-78
2023/04/28 00:48:49;;;;;;;9.20;7.05;;;;;;;10.96;41.44;100745.22;685370;28;1253;-78
2023/04/28 00:49:10;;;;;;;8.50;6.90;;;;;;;10.93;41.47;100732.97;682741;28;999;-78
2023/04/28 00:49:32;;;;;;;7.50;6.70;;;;;;;10.95;41.86;100744.34;680004;29;1117;-79
2023/04/28 00:49:54;;;;;;;8.32;6.57;;;;;;;10.91;41.93;100739.88;680258;29;850;-79
2023/04/28 00:50:15;;;;;;;8.18;6.30;;;;;;;10.97;42.09;100754.81;679336;29;1081;-79
2023/04/28 00:50:36;;;;;;;8.93;6.30;;;;;;;10.94;41.92;100747.78;682616;28;1381;-77
2023/04/28 00:50:57;;;;;;;10.25;6.60;;;;;;;10.99;41.93;100753.13;682749;28;1086;-78
2023/04/28 00:51:18;;;;;;;10.93;6.97;;;;;;;10.92;42.13;100741.66;682804;28;1422;-79
2023/04/28 00:51:39;;;;;;;10.45;7.10;;;;;;;11.02;42.13;100757.56;685363;28;1092;-78
2023/04/28 00:52:05;;;;;;;11.07;7.43;;;;;;;10.90;42.20;100740.75;685412;28;781;-78
2023/04/28 00:52:27;;;;;;;10.75;7.47;;;;;;;10.97;42.08;100750.50;687789;28;1102;-78
2023/04/28 00:52:47;;;;;;;11.18;6.80;;;;;;;11.03;42.23;100759.31;682675;28;1029;-79
2023/04/28 00:53:09;;;;;;;10.25;6.63;;;;;;;10.95;42.14;100736.50;682899;28;1130;-79
2023/04/28 00:53:30;;;;;;;10.98;6.70;;;;;;;10.92;42.18;100740.75;682552;28;1906;-79
2023/04/28 00:53:51;;;;;;;8.40;6.65;;;;;;;10.93;42.04;100739.91;685444;28;1169;-78
2023/04/28 00:54:15;;;;;;;8.00;6.80;;;;;;;10.92;41.87;100740.75;682766;28;1058;-79
2023/04/28 00:54:36;;;;;;;7.72;6.70;;;;;;;10.92;42.32;100738.16;679910;29;1017;-79
2023/04/28 00:54:57;;;;;;;9.98;6.65;;;;;;;11.05;41.83;100750.69;685579;28;827;-78
2023/04/28 00:55:17;;;;;;;10.10;6.85;;;;;;;11.00;41.85;100744.44;685461;28;1075;-79
2023/04/28 00:55:39;;;;;;;9.35;6.90;;;;;;;11.02;42.15;100750.63;682607;28;1040;-79
2023/04/28 00:56:00;;;;;;;8.52;7.05;;;;;;;10.94;42.02;100741.72;685614;28;1364;-78
2023/04/28 00:56:20;;;;;;;9.52;7.07;;;;;;;10.90;42.10;100735.53;682680;28;1097;-79
2023/04/28 00:56:42;;;;;;;9.70;6.70;;;;;;;10.93;42.12;100737.31;685311;28;1306;-78
2023/04/28 00:57:03;;;;;;;11.10;6.95;;;;;;;10.92;42.06;100730.31;682891;28;1103;-78
2023/04/28 00:57:24;;;;;;;10.70;6.93;;;;;;;10.96;42.17;100746.09;682603;28;1072;-78
2023/04/28 00:57:45;;;;;;;10.27;6.80;;;;;;;10.97;42.06;100745.28;680230;29;1057;-78
2023/04/28 00:58:08;;;;;;;7.60;6.45;;;;;;;11.00;42.13;100746.19;688107;28;1077;-79
2023/04/28 00:58:29;;;;;;;7.53;6.30;;;;;;;10.95;42.09;100739.09;682573;28;1225;-78
2023/04/28 00:58:49;;;;;;;8.23;6.30;;;;;;;10.96;42.15;100738.25;682822;29;1136;-78
2023/04/28 00:59:10;;;;;;;8.57;6.28;;;;;;;10.94;42.22;100734.75;680163;28;1064;-78
2023/04/28 00:59:31;;;;;;;10.32;6.68;;;;;;;10.96;42.32;100734.78;685311;28;1081;-79
2023/04/28 00:59:51;;;;;;;10.37;6.90;;;;;;;10.95;42.10;100741.72;685469;28;1239;-78
2023/04/28 01:00:14;;;;;;;10.85;7.05;;;;;;;10.97;42.38;100740.06;682774;29;1015;-78
2023/04/28 01:00:35;;;;;;;8.45;6.68;;;;;;;10.99;42.23;100739.22;685121;28;1102;-78
2023/04/28 01:01:03;;;;;;;8.00;6.55;;;;;;;11.01;42.52;100740.13;682682;28;1188;-78
2023/04/28 01:01:24;;;;;;;8.13;6.30;;;;;;;10.95;42.46;100739.09;685277;28;1109;-78
2023/04/28 01:01:45;;;;;;;9.43;7.03;;;;;;;11.06;42.18;100739.38;685418;28;1100;-78
2023/04/28 01:02:06;;;;;;;10.85;7.40;;;;;;;11.14;42.04;100746.53;685531;28;972;-78
2023/04/28 01:02:28;;;;;;;11.00;7.65;;;;;;;11.23;42.32;100738.94;682555;28;1957;-78
2023/04/28 01:02:52;;;;;;;10.20;7.15;;;;;;;11.13;41.85;100721.28;680166;29;1144;-78
2023/04/28 01:03:13;;;;;;;10.13;7.10;;;;;;;11.17;42.07;100733.56;682678;29;1179;-78
2023/04/28 01:03:38;;;;;;;9.95;6.97;;;;;;;11.31;41.87;100749.59;685302;28;1088;-78
2023/04/28 01:03:59;;;;;;;10.70;7.20;;;;;;;11.18;41.57;100728.38;682900;28;940;-78
2023/04/28 01:04:21;;;;;;;10.32;7.35;;;;;;;11.29;41.57;100741.69;680089;28;1173;-78
2023/04/28 01:04:45;;;;;;;9.82;7.20;;;;;;;11.20;41.73;100731.03;682831;29;984;-78
2023/04/28 01:05:08;;;;;;;10.50;7.03;;;;;;;11.30;41.78;100734.75;680272;28;1459;-78
2023/04/28 01:05:29;;;;;;;12.27;7.00;;;;;;;11.26;41.74;100735.50;680010;29;1131;-78
2023/04/28 01:05:50;;;;;;;13.10;7.10;;;;;;;11.27;41.75;100735.56;682879;28;1193;-78
2023/04/28 01:06:12;;;;;;;10.75;6.72;;;;;;;11.15;41.98;100733.53;680166;29;1120;-78
2023/04/28 01:06:36;;;;;;;7.95;6.53;;;;;;;11.16;42.20;100724.84;677203;29;1447;-78
2023/04/28 01:06:59;;;;;;;8.18;6.70;;;;;;;11.22;42.11;100730.22;680122;29;823;-78
2023/04/28 01:07:19;;;;;;;9.82;6.90;;;;;;;11.32;41.95;100733.06;680055;29;1054;-78
2023/04/28 01:07:40;;;;;;;10.20;6.93;;;;;;;11.21;41.97;100723.25;679917;29;1915;-78
2023/04/28 01:08:02;;;;;;;9.45;6.68;;;;;;;11.24;42.33;100722.41;680241;29;1217;-78
2023/04/28 01:08:26;;;;;;;9.52;6.90;;;;;;;11.26;42.29;100725.97;680103;28;1153;-78
2023/04/28 01:08:49;;;;;;;15.77;7.30;;;;;;;11.22;42.25;100714.56;680211;29;1237;-78
2023/04/28 01:09:11;;;;;;;15.88;7.40;;;;;;;11.21;42.33;100704.97;682746;28;1008;-79
2023/04/28 01:09:32;;;;;;;14.73;7.20;;;;;;;11.28;42.36;100712.91;685229;28;1229;-79
2023/04/28 01:09:53;;;;;;;9.43;7.03;;;;;;;11.15;42.06;100707.41;682843;29;1168;-78
2023/04/28 01:10:18;;;;;;;9.68;6.75;;;;;;;11.29;41.69;100710.34;680049;29;1136;-78
2023/04/28 01:10:43;;;;;;;9.15;6.60;;;;;;;11.15;42.05;100716.97;679976;29;1234;-78
2023/04/28 01:11:12;;;;;;;8.02;6.72;;;;;;;11.12;42.06;100717.75;682889;28;1065;-79
2023/04/28 01:11:58;;;;;;;9.90;6.95;;;;;;;11.17;41.89;100705.72;685482;28;972;-79
2023/04/28 01:12:41;;;;;;;12.38;7.60;;;;;;;11.06;41.87;100712.41;685248;28;1521;-78
2023/04/28 01:13:01;;;;;;;12.10;7.33;;;;;;;11.14;42.16;100718.72;685932;28;850;-80
2023/04/28 01:13:22;;;;;;;11.25;7.60;;;;;;;11.13;41.93;100724.78;685899;28;1065;-78
2023/04/28 01:13:42;;;;;;;11.50;7.20;;;;;;;11.04;42.12;100709.75;685838;28;1103;-78
2023/04/28 01:14:03;;;;;;;9.87;7.30;;;;;;;11.15;41.89;100711.72;680605;28;1176;-78
2023/04/28 01:14:28;;;;;;;9.70;6.90;;;;;;;11.29;41.48;100736.47;680334;29;1264;-78
2023/04/28 01:14:49;;;;;;;9.68;6.80;;;;;;;11.29;41.80;100725.16;683298;29;1223;-79
2023/04/28 01:15:15;;;;;;;11.68;6.60;;;;;;;11.26;41.94;100722.44;680537;29;1373;-79
2023/04/28 01:15:36;;;;;;;11.55;6.93;;;;;;;11.28;41.60;100723.38;683005;29;1308;-79
2023/04/28 01:15:57;;;;;;;12.10;7.30;;;;;;;11.35;41.80;100725.28;683306;29;1043;-79
2023/04/28 01:16:19;;;;;;;9.38;7.28;;;;;;;11.27;41.60;100719.00;680623;29;1012;-78
2023/04/28 01:16:40;;;;;;;9.50;7.07;;;;;;;11.27;41.61;100719.88;680450;28;1236;-78
2023/04/28 01:17:02;;;;;;;8.43;7.00;;;;;;;11.26;41.59;100714.63;677918;29;1256;-78
2023/04/28 01:17:23;;;;;;;8.68;7.20;;;;;;;11.28;41.68;100723.38;680496;29;1089;-79
2023/04/28 01:17:45;;;;;;;8.25;7.20;;;;;;;11.33;41.53;100729.59;683259;29;1194;-78
2023/04/28 01:18:06;;;;;;;9.63;7.40;;;;;;;11.28;41.70;100712.91;680544;29;1125;-78
2023/04/28 01:18:27;;;;;;;10.02;7.20;;;;;;;11.30;41.52;100721.69;680463;29;1095;-78
2023/04/28 01:18:48;;;;;;;10.43;7.20;;;;;;;11.33;41.52;100726.97;683225;28;1323;-78
2023/04/28 01:19:20;;;;;;;10.10;7.10;;;;;;;11.40;41.63;100736.75;685791;28;1453;-78
2023/04/28 01:19:41;;;;;;;10.02;7.57;;;;;;;11.33;41.46;100721.75;685783;28;1009;-78
2023/04/28 01:20:03;;;;;;;10.83;7.50;;;;;;;11.35;41.57;100725.28;688792;28;1088;-78
2023/04/28 01:20:23;;;;;;;11.45;7.07;;;;;;;11.34;41.49;100728.75;685756;28;1113;-79
2023/04/28 01:20:44;;;;;;;11.10;6.70;;;;;;;11.33;41.32;100716.53;691496;28;1114;-79
2023/04/28 01:21:04;;;;;;;9.10;6.60;;;;;;;11.35;41.48;100725.28;683105;28;1140;-78
2023/04/28 01:21:28;;;;;;;7.22;6.40;;;;;;;11.43;41.72;100739.41;680439;28;1276;-78
2023/04/28 01:21:50;;;;;;;9.07;6.45;;;;;;;11.34;41.70;100718.28;683234;29;1159;-79
2023/04/28 01:22:15;;;;;;;10.50;7.30;;;;;;;11.31;41.58;100736.53;683312;29;1128;-78
2023/04/28 01:22:37;;;;;;;11.63;7.70;;;;;;;11.36;41.62;100743.63;680434;29;1340;-78
2023/04/28 01:22:58;;;;;;;9.60;7.17;;;;;;;11.33;41.85;100726.97;680747;29;923;-79
2023/04/28 01:23:18;;;;;;;11.00;7.25;;;;;;;11.23;41.85;100729.38;680513;29;1120;-78
2023/04/28 01:23:39;;;;;;;10.73;7.05;;;;;;;11.16;42.02;100729.16;683082;29;1252;-78
2023/04/28 01:24:00;;;;;;;11.47;7.50;;;;;;;11.16;42.23;100722.22;678083;29;1285;-77
2023/04/28 01:24:22;;;;;;;11.18;7.65;;;;;;;11.26;42.12;100731.19;677857;29;1161;-78
2023/04/28 01:24:43;;;;;;;9.85;7.63;;;;;;;11.24;42.23;100731.13;680595;29;1282;-79
2023/04/28 01:25:06;;;;;;;10.38;7.35;;;;;;;11.26;41.87;100719.84;680618;29;1283;-78
2023/04/28 01:25:27;;;;;;;10.00;7.38;;;;;;;11.32;41.83;100727.84;677825;29;1153;-79
2023/04/28 01:25:48;;;;;;;11.93;7.30;;;;;;;11.30;41.65;100727.78;675339;29;1201;-78
2023/04/28 01:26:08;;;;;;;11.70;7.37;;;;;;;11.22;41.49;100718.88;683435;28;969;-79
2023/04/28 01:26:29;;;;;;;11.15;6.80;;;;;;;11.33;41.95;100724.38;680456;28;1226;-78
2023/04/28 01:26:49;;;;;;;10.25;7.00;;;;;;;11.38;41.83;100735.81;675015;29;1203;-79
2023/04/28 01:27:10;;;;;;;11.13;7.07;;;;;;;11.24;41.75;100720.69;678506;29;1180;-78
2023/04/28 01:27:33;;;;;;;12.20;7.47;;;;;;;11.32;41.62;100727.84;680192;29;1920;-78
2023/04/28 01:27:55;;;;;;;10.38;7.22;;;;;;;11.36;41.71;100732.28;683299;29;1911;-78
2023/04/28 01:28:15;;;;;;;10.48;7.32;;;;;;;11.33;41.72;100727.88;683196;28;1045;-79
2023/04/28 01:28:36;;;;;;;9.20;7.32;;;;;;;11.40;41.51;100734.13;680501;29;1093;-79
2023/04/28 01:28:57;;;;;;;10.63;7.67;;;;;;;11.38;41.99;100730.59;683285;28;1193;-79
2023/04/28 01:29:17;;;;;;;11.75;7.60;;;;;;;11.35;41.68;100726.19;683052;28;1114;-78
2023/04/28 01:29:38;;;;;;;11.75;7.60;;;;;;;11.30;41.56;100730.41;682984;28;1163;-79
2023/04/28 01:29:59;;;;;;;10.50;7.40;;;;;;;11.20;41.80;100721.44;686032;28;1169;-79
2023/04/28 01:30:20;;;;;;;10.63;7.38;;;;;;;11.22;42.00;100730.22;685625;28;1354;-78
2023/04/28 01:30:40;;;;;;;10.40;7.05;;;;;;;11.16;41.77;100719.63;683094;28;1289;-78
2023/04/28 01:31:01;;;;;;;10.00;7.07;;;;;;;11.36;41.76;100732.28;685978;28;1156;-79
2023/04/28 01:31:21;;;;;;;8.03;7.07;;;;;;;11.27;41.77;100713.75;680510;28;1253;-79
2023/04/28 01:31:44;;;;;;;8.98;7.40;;;;;;;11.33;41.84;100719.16;677888;29;988;-79
2023/04/28 01:32:04;;;;;;;8.60;7.13;;;;;;;11.32;41.70;100718.25;678038;29;987;-78
2023/04/28 01:32:27;;;;;;;8.15;7.20;;;;;;;11.33;41.52;100709.59;677794;29;1076;-78
2023/04/28 01:32:47;;;;;;;10.20;7.37;;;;;;;11.36;41.51;100716.59;680707;29;1089;-79
2023/04/28 01:33:08;;;;;;;10.88;7.70;;;;;;;11.34;41.57;100707.84;680529;29;1241;-78
2023/04/28 01:33:29;;;;;;;10.75;7.72;;;;;;;11.38;41.47;100725.38;683072;28;1455;-78
2023/04/28 01:33:49;;;;;;;9.50;7.53;;;;;;;11.36;41.90;100712.25;683299;29;1089;-78
2023/04/28 01:34:10;;;;;;;9.90;7.38;;;;;;;11.33;41.86;100712.19;680555;29;1357;-78
2023/04/28 01:34:31;;;;;;;11.70;7.50;;;;;;;11.45;41.84;100727.28;680321;29;1160;-78
2023/04/28 01:34:51;;;;;;;11.48;7.60;;;;;;;11.36;41.70;100706.16;678106;29;823;-79
2023/04/28 01:35:12;;;;;;;10.63;7.40;;;;;;;11.38;41.52;100712.31;683025;29;1125;-78
2023/04/28 01:35:33;;;;;;;9.18;7.50;;;;;;;11.36;41.54;100711.38;680366;29;1084;-79
2023/04/28 01:35:57;;;;;;;11.38;7.40;;;;;;;11.43;41.77;100721.13;680537;29;883;-79
2023/04/28 01:36:18;;;;;;;11.60;7.65;;;;;;;11.38;41.79;100709.69;680456;29;1084;-78
2023/04/28 01:36:39;;;;;;;11.25;7.35;;;;;;;11.39;41.64;100714.06;688426;28;1076;-79
2023/04/28 01:37:00;;;;;;;9.40;7.43;;;;;;;11.45;41.84;100727.28;680596;29;775;-79
2023/04/28 01:37:21;;;;;;;9.20;7.45;;;;;;;11.41;41.94;100714.97;683032;28;1368;-78
2023/04/28 01:37:41;;;;;;;9.15;7.57;;;;;;;11.46;41.85;100723.81;683032;28;988;-79
2023/04/28 01:38:02;;;;;;;11.05;7.50;;;;;;;11.40;42.02;100718.44;685867;28;1045;-79
2023/04/28 01:38:22;;;;;;;11.57;7.47;;;;;;;11.37;42.08;100705.31;685776;28;1116;-78
2023/04/28 01:38:44;;;;;;;10.93;7.38;;;;;;;11.48;41.98;100716.91;680477;28;998;-79
2023/04/28 01:39:07;;;;;;;8.98;7.07;;;;;;;11.41;42.00;100709.75;677875;28;1375;-79
2023/04/28 01:39:28;;;;;;;8.32;7.00;;;;;;;11.42;42.08;100711.53;680434;29;1389;-78
2023/04/28 01:39:49;;;;;;;8.55;7.25;;;;;;;11.43;41.82;100712.41;680474;29;1078;-79
2023/04/28 01:40:11;;;;;;;9.30;7.60;;;;;;;11.43;41.95;100717.63;677969;29;1140;-79
2023/04/28 01:40:31;;;;;;;9.48;7.65;;;;;;;11.39;41.95;100711.47;680350;29;1273;-79
2023/04/28 01:40:54;;;;;;;8.90;7.50;;;;;;;11.38;41.95;100704.47;680540;29;1216;-79
2023/04/28 01:41:15;;;;;;;8.63;7.28;;;;;;;11.44;41.80;100715.03;677681;29;1493;-78
2023/04/28 01:41:35;;;;;;;10.85;7.60;;;;;;;11.40;42.05;100708.00;680457;29;1064;-79
2023/04/28 01:41:58;;;;;;;11.07;7.35;;;;;;;11.44;42.00;100707.19;683306;28;1121;-79
2023/04/28 01:42:19;;;;;;;10.63;7.80;;;;;;;11.41;42.08;100714.97;677771;29;1127;-78